sensor_id;sensor_type;location;lat;lon;timestamp;temperature;humidity
25741;DHT22;13592;50.838;4.412;2022-12-18T00:01:30;0.00;99.90
25741;DHT22;13592;50.838;4.412;2022-12-18T00:03:56;0.00;99.90
25741;DHT22;13592;50.838;4.412;2022-12-18T00:06:22;-0.10;99.90
25741;DHT22;13592;50.838;4.412;2022-12-18T00:08:49;-0.20;99.90
25741;DHT22;13592;50.838;4.412;2022-12-18T00:11:17;-0.10;99.90
25741;DHT22;13592;50.838;4.412;2022-12-18T00:13:45;-0.10;99.90
25741;DHT22;13592;50.838;4.412;2022-12-18T00:16:14;-0.30;99.90
25741;DHT22;13592;50.838;4.412;2022-12-18T00:18:43;-0.30;99.90
25741;DHT22;13592;50.838;4.412;2022-12-18T00:21:09;-0.20;99.90
25741;DHT22;13592;50.838;4.412;2022-12-18T00:23:37;-0.30;99.90
25741;DHT22;13592;50.838;4.412;2022-12-18T00:26:05;-0.30;99.90
25741;DHT22;13592;50.838;4.412;2022-12-18T00:28:33;-0.10;99.90
25741;DHT22;13592;50.838;4.412;2022-12-18T00:31:05;-0.10;99.90
25741;DHT22;13592;50.838;4.412;2022-12-18T00:33:31;-0.10;99.90
25741;DHT22;13592;50.838;4.412;2022-12-18T00:36:05;-0.10;99.90
25741;DHT22;13592;50.838;4.412;2022-12-18T00:38:34;0.10;99.90
25741;DHT22;13592;50.838;4.412;2022-12-18T00:41:03;0.10;99.90
25741;DHT22;13592;50.838;4.412;2022-12-18T00:43:30;0.10;99.90
25741;DHT22;13592;50.838;4.412;2022-12-18T00:45:59;0.00;99.90
25741;DHT22;13592;50.838;4.412;2022-12-18T00:48:25;-0.10;99.90
25741;DHT22;13592;50.838;4.412;2022-12-18T00:50:51;-0.20;99.90
25741;DHT22;13592;50.838;4.412;2022-12-18T00:53:17;-0.20;99.90
25741;DHT22;13592;50.838;4.412;2022-12-18T00:55:45;-0.20;99.90
25741;DHT22;13592;50.838;4.412;2022-12-18T01:00:39;-0.10;99.90
25741;DHT22;13592;50.838;4.412;2022-12-18T01:05:41;-0.10;99.90
25741;DHT22;13592;50.838;4.412;2022-12-18T01:08:09;0.00;99.90
25741;DHT22;13592;50.838;4.412;2022-12-18T01:13:06;0.20;99.90
25741;DHT22;13592;50.838;4.412;2022-12-18T01:15:34;0.10;99.90
25741;DHT22;13592;50.838;4.412;2022-12-18T01:20:31;-0.10;99.90
25741;DHT22;13592;50.838;4.412;2022-12-18T01:23:00;0.00;99.90
25741;DHT22;13592;50.838;4.412;2022-12-18T01:25:26;0.10;99.90
25741;DHT22;13592;50.838;4.412;2022-12-18T01:27:53;0.10;99.90
25741;DHT22;13592;50.838;4.412;2022-12-18T01:30:19;0.00;99.90
25741;DHT22;13592;50.838;4.412;2022-12-18T01:32:45;0.10;99.90
25741;DHT22;13592;50.838;4.412;2022-12-18T01:35:11;0.30;99.90
25741;DHT22;13592;50.838;4.412;2022-12-18T01:37:37;0.10;99.90
25741;DHT22;13592;50.838;4.412;2022-12-18T01:40:03;-0.10;99.90
25741;DHT22;13592;50.838;4.412;2022-12-18T01:42:29;-0.20;99.90
25741;DHT22;13592;50.838;4.412;2022-12-18T01:45:05;-0.20;99.90
25741;DHT22;13592;50.838;4.412;2022-12-18T01:53:14;-0.10;99.90
25741;DHT22;13592;50.838;4.412;2022-12-18T02:01:11;-0.10;99.90
25741;DHT22;13592;50.838;4.412;2022-12-18T02:03:36;-0.20;99.90
25741;DHT22;13592;50.838;4.412;2022-12-18T02:16:57;-0.40;99.90
25741;DHT22;13592;50.838;4.412;2022-12-18T02:19:35;-0.40;99.90
25741;DHT22;13592;50.838;4.412;2022-12-18T02:22:07;-0.40;99.90
25741;DHT22;13592;50.838;4.412;2022-12-18T02:24:44;-0.30;99.90
25741;DHT22;13592;50.838;4.412;2022-12-18T02:27:11;-0.30;99.90
25741;DHT22;13592;50.838;4.412;2022-12-18T02:29:39;-0.40;99.90
25741;DHT22;13592;50.838;4.412;2022-12-18T02:32:14;-0.50;99.90
25741;DHT22;13592;50.838;4.412;2022-12-18T02:34:40;-0.60;99.90
25741;DHT22;13592;50.838;4.412;2022-12-18T02:37:08;-0.60;99.90
25741;DHT22;13592;50.838;4.412;2022-12-18T02:39:38;-0.60;99.90
25741;DHT22;13592;50.838;4.412;2022-12-18T02:42:05;-0.60;99.90
25741;DHT22;13592;50.838;4.412;2022-12-18T02:44:33;-0.70;99.90
25741;DHT22;13592;50.838;4.412;2022-12-18T02:47:00;-0.80;99.90
25741;DHT22;13592;50.838;4.412;2022-12-18T02:52:07;-0.80;99.90
25741;DHT22;13592;50.838;4.412;2022-12-18T02:54:43;-0.90;99.90
25741;DHT22;13592;50.838;4.412;2022-12-18T03:00:18;-1.00;99.90
25741;DHT22;13592;50.838;4.412;2022-12-18T03:02:47;-1.00;99.90
25741;DHT22;13592;50.838;4.412;2022-12-18T03:05:17;-1.00;99.90
25741;DHT22;13592;50.838;4.412;2022-12-18T03:10:13;-1.00;99.90
25741;DHT22;13592;50.838;4.412;2022-12-18T03:16:03;-1.00;99.90
25741;DHT22;13592;50.838;4.412;2022-12-18T03:21:07;-1.10;99.90
25741;DHT22;13592;50.838;4.412;2022-12-18T03:23:40;-1.00;99.90
25741;DHT22;13592;50.838;4.412;2022-12-18T03:26:09;-1.10;99.90
25741;DHT22;13592;50.838;4.412;2022-12-18T03:28:38;-1.10;99.90
25741;DHT22;13592;50.838;4.412;2022-12-18T03:31:04;-1.10;99.90
25741;DHT22;13592;50.838;4.412;2022-12-18T03:33:32;-1.20;99.90
25741;DHT22;13592;50.838;4.412;2022-12-18T03:35:59;-1.20;99.90
25741;DHT22;13592;50.838;4.412;2022-12-18T03:38:28;-1.00;99.90
25741;DHT22;13592;50.838;4.412;2022-12-18T03:46:30;-1.20;99.90
25741;DHT22;13592;50.838;4.412;2022-12-18T03:49:08;-1.20;99.90
25741;DHT22;13592;50.838;4.412;2022-12-18T03:52:09;-1.30;99.90
25741;DHT22;13592;50.838;4.412;2022-12-18T03:57:09;-1.30;99.90
25741;DHT22;13592;50.838;4.412;2022-12-18T03:59:39;-1.20;99.90
25741;DHT22;13592;50.838;4.412;2022-12-18T04:07:06;-1.30;99.90
25741;DHT22;13592;50.838;4.412;2022-12-18T04:09:33;-1.20;99.90
25741;DHT22;13592;50.838;4.412;2022-12-18T04:11:59;-1.30;99.90
25741;DHT22;13592;50.838;4.412;2022-12-18T04:14:25;-1.40;99.90
25741;DHT22;13592;50.838;4.412;2022-12-18T04:16:51;-1.30;99.90
25741;DHT22;13592;50.838;4.412;2022-12-18T04:19:18;-1.30;99.90
25741;DHT22;13592;50.838;4.412;2022-12-18T04:21:44;-1.40;99.90
25741;DHT22;13592;50.838;4.412;2022-12-18T04:24:10;-1.40;99.90
25741;DHT22;13592;50.838;4.412;2022-12-18T04:26:39;-1.50;99.90
25741;DHT22;13592;50.838;4.412;2022-12-18T04:29:05;-1.60;99.90
25741;DHT22;13592;50.838;4.412;2022-12-18T04:31:31;-1.60;99.90
25741;DHT22;13592;50.838;4.412;2022-12-18T04:33:58;-1.60;99.90
25741;DHT22;13592;50.838;4.412;2022-12-18T04:38:55;-1.60;99.90
25741;DHT22;13592;50.838;4.412;2022-12-18T04:41:24;-1.60;99.90
25741;DHT22;13592;50.838;4.412;2022-12-18T04:43:53;-1.60;99.90
25741;DHT22;13592;50.838;4.412;2022-12-18T04:49:08;-1.70;99.90
25741;DHT22;13592;50.838;4.412;2022-12-18T04:51:38;-1.50;99.90
25741;DHT22;13592;50.838;4.412;2022-12-18T04:56:36;-1.60;99.90
25741;DHT22;13592;50.838;4.412;2022-12-18T04:59:01;-1.70;99.90
25741;DHT22;13592;50.838;4.412;2022-12-18T05:01:35;-1.80;99.90
25741;DHT22;13592;50.838;4.412;2022-12-18T05:04:03;-1.80;99.90
25741;DHT22;13592;50.838;4.412;2022-12-18T05:06:30;-1.80;99.90
25741;DHT22;13592;50.838;4.412;2022-12-18T05:11:27;-1.80;99.90
25741;DHT22;13592;50.838;4.412;2022-12-18T05:13:53;-1.70;99.90
25741;DHT22;13592;50.838;4.412;2022-12-18T05:16:19;-1.70;99.90
25741;DHT22;13592;50.838;4.412;2022-12-18T05:18:45;-1.70;99.90
25741;DHT22;13592;50.838;4.412;2022-12-18T05:23:40;-1.60;99.90
25741;DHT22;13592;50.838;4.412;2022-12-18T05:26:15;-1.70;99.90
25741;DHT22;13592;50.838;4.412;2022-12-18T05:28:40;-1.80;99.90
25741;DHT22;13592;50.838;4.412;2022-12-18T05:31:07;-1.80;99.90
25741;DHT22;13592;50.838;4.412;2022-12-18T05:33:33;-1.90;99.90
25741;DHT22;13592;50.838;4.412;2022-12-18T05:36:04;-1.80;99.90
25741;DHT22;13592;50.838;4.412;2022-12-18T05:41:05;-1.70;99.90
25741;DHT22;13592;50.838;4.412;2022-12-18T05:43:42;-1.70;99.90
25741;DHT22;13592;50.838;4.412;2022-12-18T05:49:03;-1.70;99.90
25741;DHT22;13592;50.838;4.412;2022-12-18T05:51:32;-1.60;99.90
25741;DHT22;13592;50.838;4.412;2022-12-18T05:54:00;-1.50;99.90
25741;DHT22;13592;50.838;4.412;2022-12-18T05:56:26;-1.50;99.90
25741;DHT22;13592;50.838;4.412;2022-12-18T05:59:05;-1.50;99.90
25741;DHT22;13592;50.838;4.412;2022-12-18T06:04:15;-1.50;99.90
25741;DHT22;13592;50.838;4.412;2022-12-18T06:06:40;-1.50;99.90
25741;DHT22;13592;50.838;4.412;2022-12-18T06:09:13;-1.60;99.90
25741;DHT22;13592;50.838;4.412;2022-12-18T06:16:51;-1.60;99.90
25741;DHT22;13592;50.838;4.412;2022-12-18T06:19:18;-1.50;99.90
25741;DHT22;13592;50.838;4.412;2022-12-18T06:21:46;-1.60;99.90
25741;DHT22;13592;50.838;4.412;2022-12-18T06:24:14;-1.50;99.90
25741;DHT22;13592;50.838;4.412;2022-12-18T06:26:40;-1.60;99.90
25741;DHT22;13592;50.838;4.412;2022-12-18T06:29:05;-1.70;99.90
25741;DHT22;13592;50.838;4.412;2022-12-18T06:31:33;-1.70;99.90
25741;DHT22;13592;50.838;4.412;2022-12-18T06:34:03;-1.60;99.90
25741;DHT22;13592;50.838;4.412;2022-12-18T06:36:38;-1.60;99.90
25741;DHT22;13592;50.838;4.412;2022-12-18T06:39:06;-1.60;99.90
25741;DHT22;13592;50.838;4.412;2022-12-18T06:41:33;-1.50;99.90
25741;DHT22;13592;50.838;4.412;2022-12-18T06:44:01;-1.20;99.90
25741;DHT22;13592;50.838;4.412;2022-12-18T06:46:26;-1.00;99.90
25741;DHT22;13592;50.838;4.412;2022-12-18T06:48:54;-1.00;99.90
25741;DHT22;13592;50.838;4.412;2022-12-18T06:51:23;-0.90;99.90
25741;DHT22;13592;50.838;4.412;2022-12-18T06:53:55;-1.00;99.90
25741;DHT22;13592;50.838;4.412;2022-12-18T06:56:22;-0.90;99.90
25741;DHT22;13592;50.838;4.412;2022-12-18T07:01:19;-0.90;99.90
25741;DHT22;13592;50.838;4.412;2022-12-18T07:06:18;-1.00;99.90
25741;DHT22;13592;50.838;4.412;2022-12-18T07:08:51;-0.80;99.90
25741;DHT22;13592;50.838;4.412;2022-12-18T07:13:46;-0.70;99.90
25741;DHT22;13592;50.838;4.412;2022-12-18T07:16:24;-0.60;99.90
25741;DHT22;13592;50.838;4.412;2022-12-18T07:18:49;-0.70;99.90
25741;DHT22;13592;50.838;4.412;2022-12-18T07:21:16;-0.70;99.90
25741;DHT22;13592;50.838;4.412;2022-12-18T07:23:42;-0.80;99.90
25741;DHT22;13592;50.838;4.412;2022-12-18T07:26:09;-0.70;99.90
25741;DHT22;13592;50.838;4.412;2022-12-18T07:28:37;-0.40;99.90
25741;DHT22;13592;50.838;4.412;2022-12-18T07:31:19;-0.50;99.90
25741;DHT22;13592;50.838;4.412;2022-12-18T07:33:45;-0.50;99.90
25741;DHT22;13592;50.838;4.412;2022-12-18T07:36:12;-0.50;99.90
25741;DHT22;13592;50.838;4.412;2022-12-18T07:38:47;-0.40;99.90
25741;DHT22;13592;50.838;4.412;2022-12-18T07:41:19;-0.60;99.90
25741;DHT22;13592;50.838;4.412;2022-12-18T07:43:46;-0.60;99.90
25741;DHT22;13592;50.838;4.412;2022-12-18T07:46:14;-0.20;99.90
25741;DHT22;13592;50.838;4.412;2022-12-18T07:48:41;0.00;99.90
25741;DHT22;13592;50.838;4.412;2022-12-18T07:51:13;-0.10;99.90
25741;DHT22;13592;50.838;4.412;2022-12-18T07:53:51;0.10;99.90
25741;DHT22;13592;50.838;4.412;2022-12-18T07:56:16;0.00;99.90
25741;DHT22;13592;50.838;4.412;2022-12-18T07:58:44;0.00;99.90
25741;DHT22;13592;50.838;4.412;2022-12-18T08:01:14;-0.10;99.90
25741;DHT22;13592;50.838;4.412;2022-12-18T08:03:40;-0.10;99.90
25741;DHT22;13592;50.838;4.412;2022-12-18T08:06:07;-0.10;99.90
25741;DHT22;13592;50.838;4.412;2022-12-18T08:08:38;-0.10;99.90
25741;DHT22;13592;50.838;4.412;2022-12-18T08:11:05;-0.10;99.90
25741;DHT22;13592;50.838;4.412;2022-12-18T08:13:39;-0.10;99.90
25741;DHT22;13592;50.838;4.412;2022-12-18T08:16:12;0.00;99.90
25741;DHT22;13592;50.838;4.412;2022-12-18T08:18:37;0.00;99.90
25741;DHT22;13592;50.838;4.412;2022-12-18T08:21:16;0.00;99.90
25741;DHT22;13592;50.838;4.412;2022-12-18T08:23:43;-0.10;99.90
25741;DHT22;13592;50.838;4.412;2022-12-18T08:26:11;-0.10;99.90
25741;DHT22;13592;50.838;4.412;2022-12-18T08:28:37;-0.10;99.90
25741;DHT22;13592;50.838;4.412;2022-12-18T08:31:15;0.00;99.90
25741;DHT22;13592;50.838;4.412;2022-12-18T08:33:41;0.00;99.90
25741;DHT22;13592;50.838;4.412;2022-12-18T08:36:16;0.10;99.90
25741;DHT22;13592;50.838;4.412;2022-12-18T08:38:43;0.00;99.90
25741;DHT22;13592;50.838;4.412;2022-12-18T08:46:41;0.50;99.90
25741;DHT22;13592;50.838;4.412;2022-12-18T08:51:59;0.40;99.90
25741;DHT22;13592;50.838;4.412;2022-12-18T08:54:41;0.30;99.90
25741;DHT22;13592;50.838;4.412;2022-12-18T09:00:04;0.40;99.90
25741;DHT22;13592;50.838;4.412;2022-12-18T09:02:31;0.50;99.90
25741;DHT22;13592;50.838;4.412;2022-12-18T09:05:00;0.50;99.90
25741;DHT22;13592;50.838;4.412;2022-12-18T09:07:25;0.60;99.90
25741;DHT22;13592;50.838;4.412;2022-12-18T09:09:57;0.60;99.90
25741;DHT22;13592;50.838;4.412;2022-12-18T09:12:23;0.50;99.90
25741;DHT22;13592;50.838;4.412;2022-12-18T09:15:06;0.60;99.90
25741;DHT22;13592;50.838;4.412;2022-12-18T09:17:46;0.70;99.90
25741;DHT22;13592;50.838;4.412;2022-12-18T09:22:41;0.90;99.90
25741;DHT22;13592;50.838;4.412;2022-12-18T09:25:15;0.90;99.90
25741;DHT22;13592;50.838;4.412;2022-12-18T09:27:41;0.90;99.90
25741;DHT22;13592;50.838;4.412;2022-12-18T09:30:07;1.00;99.90
25741;DHT22;13592;50.838;4.412;2022-12-18T09:32:50;1.10;99.90
25741;DHT22;13592;50.838;4.412;2022-12-18T09:35:15;1.00;99.90
25741;DHT22;13592;50.838;4.412;2022-12-18T09:37:49;1.10;99.90
25741;DHT22;13592;50.838;4.412;2022-12-18T09:42:59;1.10;99.90
25741;DHT22;13592;50.838;4.412;2022-12-18T09:45:27;1.00;99.90
25741;DHT22;13592;50.838;4.412;2022-12-18T09:47:56;0.90;99.90
25741;DHT22;13592;50.838;4.412;2022-12-18T09:50:24;1.00;99.90
25741;DHT22;13592;50.838;4.412;2022-12-18T09:52:54;1.20;99.90
25741;DHT22;13592;50.838;4.412;2022-12-18T09:58:33;1.00;99.90
25741;DHT22;13592;50.838;4.412;2022-12-18T10:04:08;1.00;99.90
25741;DHT22;13592;50.838;4.412;2022-12-18T10:09:26;1.30;99.90
25741;DHT22;13592;50.838;4.412;2022-12-18T10:17:50;1.50;99.90
25741;DHT22;13592;50.838;4.412;2022-12-18T10:20:41;1.60;99.90
25741;DHT22;13592;50.838;4.412;2022-12-18T10:26:26;1.30;99.90
25741;DHT22;13592;50.838;4.412;2022-12-18T10:31:24;1.50;99.90
25741;DHT22;13592;50.838;4.412;2022-12-18T10:33:50;1.50;99.90
25741;DHT22;13592;50.838;4.412;2022-12-18T10:36:19;1.40;99.90
25741;DHT22;13592;50.838;4.412;2022-12-18T10:38:48;1.50;99.90
25741;DHT22;13592;50.838;4.412;2022-12-18T10:41:24;1.40;99.90
25741;DHT22;13592;50.838;4.412;2022-12-18T10:44:17;1.50;99.90
25741;DHT22;13592;50.838;4.412;2022-12-18T10:46:55;1.50;99.90
25741;DHT22;13592;50.838;4.412;2022-12-18T10:49:33;1.60;99.90
25741;DHT22;13592;50.838;4.412;2022-12-18T10:52:21;1.70;99.90
25741;DHT22;13592;50.838;4.412;2022-12-18T10:55:05;1.70;99.90
25741;DHT22;13592;50.838;4.412;2022-12-18T10:57:44;1.60;99.90
25741;DHT22;13592;50.838;4.412;2022-12-18T11:02:58;1.60;99.90
25741;DHT22;13592;50.838;4.412;2022-12-18T11:08:21;2.00;99.90
25741;DHT22;13592;50.838;4.412;2022-12-18T11:10:52;1.90;99.90
25741;DHT22;13592;50.838;4.412;2022-12-18T11:13:20;1.90;99.90
25741;DHT22;13592;50.838;4.412;2022-12-18T11:15:46;2.00;99.90
25741;DHT22;13592;50.838;4.412;2022-12-18T11:18:16;2.10;99.90
25741;DHT22;13592;50.838;4.412;2022-12-18T11:20:43;2.20;99.90
25741;DHT22;13592;50.838;4.412;2022-12-18T11:23:15;2.50;99.90
25741;DHT22;13592;50.838;4.412;2022-12-18T11:25:41;2.30;99.90
25741;DHT22;13592;50.838;4.412;2022-12-18T11:31:38;2.10;99.90
25741;DHT22;13592;50.838;4.412;2022-12-18T11:33:41;2.20;99.90
25741;DHT22;13592;50.838;4.412;2022-12-18T11:36:13;2.30;99.90
25741;DHT22;13592;50.838;4.412;2022-12-18T11:46:49;2.50;99.90
25741;DHT22;13592;50.838;4.412;2022-12-18T11:49:25;2.30;99.90
25741;DHT22;13592;50.838;4.412;2022-12-18T11:51:56;2.30;99.90
25741;DHT22;13592;50.838;4.412;2022-12-18T11:54:37;2.10;99.90
25741;DHT22;13592;50.838;4.412;2022-12-18T12:19:27;2.60;99.90
25741;DHT22;13592;50.838;4.412;2022-12-18T12:21:21;2.90;99.90
25741;DHT22;13592;50.838;4.412;2022-12-18T12:29:35;2.70;99.90
25741;DHT22;13592;50.838;4.412;2022-12-18T12:32:05;2.70;99.90
25741;DHT22;13592;50.838;4.412;2022-12-18T12:39:50;2.80;99.90
25741;DHT22;13592;50.838;4.412;2022-12-18T12:45:33;3.00;99.90
25741;DHT22;13592;50.838;4.412;2022-12-18T12:48:00;2.80;99.90
25741;DHT22;13592;50.838;4.412;2022-12-18T12:50:29;2.80;99.90
25741;DHT22;13592;50.838;4.412;2022-12-18T12:52:58;2.90;99.90
25741;DHT22;13592;50.838;4.412;2022-12-18T12:55:26;3.00;99.90
25741;DHT22;13592;50.838;4.412;2022-12-18T13:08:29;2.90;99.90
25741;DHT22;13592;50.838;4.412;2022-12-18T13:10:58;2.90;99.90
25741;DHT22;13592;50.838;4.412;2022-12-18T13:13:52;2.80;99.90
25741;DHT22;13592;50.838;4.412;2022-12-18T13:16:21;2.80;99.90
25741;DHT22;13592;50.838;4.412;2022-12-18T13:18:53;3.00;99.90
25741;DHT22;13592;50.838;4.412;2022-12-18T13:21:27;3.10;99.90
25741;DHT22;13592;50.838;4.412;2022-12-18T13:28:51;2.90;99.90
25741;DHT22;13592;50.838;4.412;2022-12-18T13:36:47;2.90;99.90
25741;DHT22;13592;50.838;4.412;2022-12-18T13:39:22;3.10;99.90
25741;DHT22;13592;50.838;4.412;2022-12-18T13:41:50;3.00;99.90
25741;DHT22;13592;50.838;4.412;2022-12-18T13:44:30;2.90;99.90
25741;DHT22;13592;50.838;4.412;2022-12-18T13:47:01;2.80;99.90
25741;DHT22;13592;50.838;4.412;2022-12-18T13:49:41;3.10;99.90
25741;DHT22;13592;50.838;4.412;2022-12-18T13:55:05;3.10;99.90
25741;DHT22;13592;50.838;4.412;2022-12-18T13:57:35;2.80;99.90
25741;DHT22;13592;50.838;4.412;2022-12-18T14:05:36;2.80;99.90
25741;DHT22;13592;50.838;4.412;2022-12-18T14:08:21;3.00;99.90
25741;DHT22;13592;50.838;4.412;2022-12-18T14:10:52;2.70;99.90
25741;DHT22;13592;50.838;4.412;2022-12-18T14:13:21;2.90;99.90
25741;DHT22;13592;50.838;4.412;2022-12-18T14:16:00;2.80;99.90
25741;DHT22;13592;50.838;4.412;2022-12-18T14:21:23;2.60;99.90
25741;DHT22;13592;50.838;4.412;2022-12-18T14:26:35;2.80;99.90
25741;DHT22;13592;50.838;4.412;2022-12-18T14:29:24;2.70;99.90
25741;DHT22;13592;50.838;4.412;2022-12-18T14:34:39;3.10;99.90
25741;DHT22;13592;50.838;4.412;2022-12-18T14:39:35;2.90;99.90
25741;DHT22;13592;50.838;4.412;2022-12-18T14:56:44;2.60;99.90
25741;DHT22;13592;50.838;4.412;2022-12-18T14:59:21;2.70;99.90
25741;DHT22;13592;50.838;4.412;2022-12-18T15:04:27;2.60;99.90
25741;DHT22;13592;50.838;4.412;2022-12-18T15:09:40;2.70;99.90
25741;DHT22;13592;50.838;4.412;2022-12-18T15:12:15;2.50;99.90
25741;DHT22;13592;50.838;4.412;2022-12-18T15:14:48;2.80;99.90
25741;DHT22;13592;50.838;4.412;2022-12-18T15:19:47;2.80;99.90
25741;DHT22;13592;50.838;4.412;2022-12-18T15:22:36;2.70;99.90
25741;DHT22;13592;50.838;4.412;2022-12-18T15:25:21;2.70;99.90
25741;DHT22;13592;50.838;4.412;2022-12-18T15:31:00;2.70;99.90
25741;DHT22;13592;50.838;4.412;2022-12-18T15:33:29;2.60;99.90
25741;DHT22;13592;50.838;4.412;2022-12-18T15:36:01;2.70;99.90
25741;DHT22;13592;50.838;4.412;2022-12-18T15:38:30;2.80;99.90
25741;DHT22;13592;50.838;4.412;2022-12-18T15:43:26;2.80;99.90
25741;DHT22;13592;50.838;4.412;2022-12-18T15:46:03;2.60;99.90
25741;DHT22;13592;50.838;4.412;2022-12-18T15:48:34;2.70;99.90
25741;DHT22;13592;50.838;4.412;2022-12-18T15:51:02;2.60;99.90
25741;DHT22;13592;50.838;4.412;2022-12-18T15:53:38;2.70;99.90
25741;DHT22;13592;50.838;4.412;2022-12-18T15:56:04;2.60;99.90
25741;DHT22;13592;50.838;4.412;2022-12-18T15:58:49;2.60;99.90
25741;DHT22;13592;50.838;4.412;2022-12-18T16:01:21;2.70;99.90
25741;DHT22;13592;50.838;4.412;2022-12-18T16:03:50;2.50;99.90
25741;DHT22;13592;50.838;4.412;2022-12-18T16:06:16;2.50;99.90
25741;DHT22;13592;50.838;4.412;2022-12-18T16:11:37;2.50;99.90
25741;DHT22;13592;50.838;4.412;2022-12-18T16:16:44;2.90;99.90
25741;DHT22;13592;50.838;4.412;2022-12-18T16:19:12;2.70;99.90
25741;DHT22;13592;50.838;4.412;2022-12-18T16:21:38;2.90;99.90
25741;DHT22;13592;50.838;4.412;2022-12-18T16:26:35;2.80;99.90
25741;DHT22;13592;50.838;4.412;2022-12-18T16:29:04;2.80;99.90
25741;DHT22;13592;50.838;4.412;2022-12-18T16:31:30;2.80;99.90
25741;DHT22;13592;50.838;4.412;2022-12-18T16:36:42;2.90;99.90
25741;DHT22;13592;50.838;4.412;2022-12-18T16:39:10;2.80;99.90
25741;DHT22;13592;50.838;4.412;2022-12-18T16:41:35;3.00;99.90
25741;DHT22;13592;50.838;4.412;2022-12-18T16:44:06;2.80;99.90
25741;DHT22;13592;50.838;4.412;2022-12-18T16:46:34;2.80;99.90
25741;DHT22;13592;50.838;4.412;2022-12-18T16:49:02;2.90;99.90
25741;DHT22;13592;50.838;4.412;2022-12-18T16:51:28;2.90;99.90
25741;DHT22;13592;50.838;4.412;2022-12-18T16:53:55;2.70;99.90
25741;DHT22;13592;50.838;4.412;2022-12-18T16:58:56;3.00;99.90
25741;DHT22;13592;50.838;4.412;2022-12-18T17:01:25;3.00;99.90
25741;DHT22;13592;50.838;4.412;2022-12-18T17:03:58;2.90;99.90
25741;DHT22;13592;50.838;4.412;2022-12-18T17:06:26;2.90;99.90
25741;DHT22;13592;50.838;4.412;2022-12-18T17:08:55;2.90;99.90
25741;DHT22;13592;50.838;4.412;2022-12-18T17:11:28;2.90;99.90
25741;DHT22;13592;50.838;4.412;2022-12-18T17:13:56;2.80;99.90
25741;DHT22;13592;50.838;4.412;2022-12-18T17:16:22;2.90;99.90
25741;DHT22;13592;50.838;4.412;2022-12-18T17:18:50;3.20;99.90
25741;DHT22;13592;50.838;4.412;2022-12-18T17:21:16;3.00;99.90
25741;DHT22;13592;50.838;4.412;2022-12-18T17:23:42;2.90;99.90
25741;DHT22;13592;50.838;4.412;2022-12-18T17:26:09;2.90;99.90
25741;DHT22;13592;50.838;4.412;2022-12-18T17:28:41;2.90;99.90
25741;DHT22;13592;50.838;4.412;2022-12-18T17:31:12;2.80;99.90
25741;DHT22;13592;50.838;4.412;2022-12-18T17:33:47;2.90;99.90
25741;DHT22;13592;50.838;4.412;2022-12-18T17:36:16;2.90;99.90
25741;DHT22;13592;50.838;4.412;2022-12-18T17:38:52;3.00;99.90
25741;DHT22;13592;50.838;4.412;2022-12-18T17:41:29;3.10;99.90
25741;DHT22;13592;50.838;4.412;2022-12-18T17:44:02;3.20;99.90
25741;DHT22;13592;50.838;4.412;2022-12-18T17:46:32;3.00;99.90
25741;DHT22;13592;50.838;4.412;2022-12-18T17:49:00;3.20;99.90
25741;DHT22;13592;50.838;4.412;2022-12-18T17:51:32;3.10;99.90
25741;DHT22;13592;50.838;4.412;2022-12-18T17:54:00;3.00;99.90
25741;DHT22;13592;50.838;4.412;2022-12-18T17:56:28;2.90;99.90
25741;DHT22;13592;50.838;4.412;2022-12-18T17:58:54;3.20;99.90
25741;DHT22;13592;50.838;4.412;2022-12-18T18:01:21;3.30;99.90
25741;DHT22;13592;50.838;4.412;2022-12-18T18:03:50;3.10;99.90
25741;DHT22;13592;50.838;4.412;2022-12-18T18:06:21;3.10;99.90
25741;DHT22;13592;50.838;4.412;2022-12-18T18:08:56;3.20;99.90
25741;DHT22;13592;50.838;4.412;2022-12-18T18:11:25;3.10;99.90
25741;DHT22;13592;50.838;4.412;2022-12-18T18:14:14;3.10;99.90
25741;DHT22;13592;50.838;4.412;2022-12-18T18:16:42;2.90;99.90
25741;DHT22;13592;50.838;4.412;2022-12-18T18:19:14;3.10;99.90
25741;DHT22;13592;50.838;4.412;2022-12-18T18:21:43;3.00;99.90
25741;DHT22;13592;50.838;4.412;2022-12-18T18:24:10;2.70;99.90
25741;DHT22;13592;50.838;4.412;2022-12-18T18:26:40;2.80;99.90
25741;DHT22;13592;50.838;4.412;2022-12-18T18:29:10;2.90;99.90
25741;DHT22;13592;50.838;4.412;2022-12-18T18:31:38;2.80;99.90
25741;DHT22;13592;50.838;4.412;2022-12-18T18:34:05;2.90;99.90
25741;DHT22;13592;50.838;4.412;2022-12-18T18:36:35;2.80;99.90
25741;DHT22;13592;50.838;4.412;2022-12-18T18:39:02;2.80;99.90
25741;DHT22;13592;50.838;4.412;2022-12-18T18:41:33;2.60;99.90
25741;DHT22;13592;50.838;4.412;2022-12-18T18:44:01;2.70;99.90
25741;DHT22;13592;50.838;4.412;2022-12-18T18:46:30;2.90;99.90
25741;DHT22;13592;50.838;4.412;2022-12-18T18:48:59;2.70;99.90
25741;DHT22;13592;50.838;4.412;2022-12-18T18:51:45;2.70;99.90
25741;DHT22;13592;50.838;4.412;2022-12-18T18:54:10;2.60;99.90
25741;DHT22;13592;50.838;4.412;2022-12-18T18:56:36;2.60;99.90
25741;DHT22;13592;50.838;4.412;2022-12-18T18:59:03;2.80;99.90
25741;DHT22;13592;50.838;4.412;2022-12-18T19:01:31;2.80;99.90
25741;DHT22;13592;50.838;4.412;2022-12-18T19:04:01;2.70;99.90
25741;DHT22;13592;50.838;4.412;2022-12-18T19:06:27;2.80;99.90
25741;DHT22;13592;50.838;4.412;2022-12-18T19:09:00;2.80;99.90
25741;DHT22;13592;50.838;4.412;2022-12-18T19:11:25;2.90;99.90
25741;DHT22;13592;50.838;4.412;2022-12-18T19:14:11;2.90;99.90
25741;DHT22;13592;50.838;4.412;2022-12-18T19:16:39;2.90;99.90
25741;DHT22;13592;50.838;4.412;2022-12-18T19:19:06;2.80;99.90
25741;DHT22;13592;50.838;4.412;2022-12-18T19:21:32;2.70;99.90
25741;DHT22;13592;50.838;4.412;2022-12-18T19:23:59;2.80;99.90
25741;DHT22;13592;50.838;4.412;2022-12-18T19:26:26;2.70;99.90
25741;DHT22;13592;50.838;4.412;2022-12-18T19:28:53;2.70;99.90
25741;DHT22;13592;50.838;4.412;2022-12-18T19:31:19;2.60;99.90
25741;DHT22;13592;50.838;4.412;2022-12-18T19:33:46;2.70;99.90
25741;DHT22;13592;50.838;4.412;2022-12-18T19:38:41;2.70;99.90
25741;DHT22;13592;50.838;4.412;2022-12-18T19:41:07;2.70;99.90
25741;DHT22;13592;50.838;4.412;2022-12-18T19:43:35;2.90;99.90
25741;DHT22;13592;50.838;4.412;2022-12-18T19:46:01;2.90;99.90
25741;DHT22;13592;50.838;4.412;2022-12-18T19:48:31;2.70;99.90
25741;DHT22;13592;50.838;4.412;2022-12-18T19:50:56;2.70;99.90
25741;DHT22;13592;50.838;4.412;2022-12-18T19:53:23;2.80;99.90
25741;DHT22;13592;50.838;4.412;2022-12-18T19:55:52;2.80;99.90
25741;DHT22;13592;50.838;4.412;2022-12-18T19:58:25;2.70;99.90
25741;DHT22;13592;50.838;4.412;2022-12-18T20:00:50;2.60;99.90
25741;DHT22;13592;50.838;4.412;2022-12-18T20:03:17;2.80;99.90
25741;DHT22;13592;50.838;4.412;2022-12-18T20:05:44;2.80;99.90
25741;DHT22;13592;50.838;4.412;2022-12-18T20:08:10;2.90;99.90
25741;DHT22;13592;50.838;4.412;2022-12-18T20:10:36;2.90;99.90
25741;DHT22;13592;50.838;4.412;2022-12-18T20:13:02;2.90;99.90
25741;DHT22;13592;50.838;4.412;2022-12-18T20:15:27;2.90;99.90
25741;DHT22;13592;50.838;4.412;2022-12-18T20:17:56;2.90;99.90
25741;DHT22;13592;50.838;4.412;2022-12-18T20:20:23;2.90;99.90
25741;DHT22;13592;50.838;4.412;2022-12-18T20:22:49;2.90;99.90